createdAt,value
2023-03-11T00:00:46.898Z,3.40
2023-03-11T00:03:17.323Z,3.40
2023-03-11T00:05:47.734Z,3.30
2023-03-11T00:08:18.304Z,3.30
2023-03-11T00:10:47.656Z,3.30
2023-03-11T00:13:18.506Z,3.30
2023-03-11T00:15:48.657Z,3.30
2023-03-11T00:18:17.684Z,3.30
2023-03-11T00:20:47.930Z,3.30
2023-03-11T00:23:27.046Z,3.30
2023-03-11T00:25:57.339Z,3.30
2023-03-11T00:28:26.756Z,3.40
2023-03-11T00:30:56.033Z,3.40
2023-03-11T00:33:26.086Z,3.40
2023-03-11T00:35:54.086Z,3.60
2023-03-11T00:38:24.210Z,3.70
2023-03-11T00:40:54.503Z,3.80
2023-03-11T00:43:21.556Z,3.90
2023-03-11T00:45:48.729Z,3.90
2023-03-11T00:48:16.782Z,4.00
2023-03-11T00:50:43.960Z,4.00
2023-03-11T00:53:11.861Z,4.00
2023-03-11T00:55:40.323Z,4.00
2023-03-11T00:58:08.453Z,4.00
2023-03-11T01:00:35.800Z,4.00
2023-03-11T01:03:02.846Z,4.00
2023-03-11T01:05:33.154Z,4.10
2023-03-11T01:08:00.497Z,4.00
2023-03-11T01:10:31.336Z,4.10
2023-03-11T01:13:00.373Z,4.20
2023-03-11T01:15:35.126Z,4.20
2023-03-11T01:18:06.772Z,4.30
2023-03-11T01:20:38.178Z,4.30
2023-03-11T01:23:07.537Z,4.20
2023-03-11T01:25:36.121Z,4.20
2023-03-11T01:28:05.540Z,4.30
2023-03-11T01:30:36.562Z,4.30
2023-03-11T01:33:05.336Z,4.20
2023-03-11T01:35:35.610Z,4.20
2023-03-11T01:38:05.844Z,4.20
2023-03-11T01:40:40.456Z,4.20
2023-03-11T01:43:28.573Z,4.10
2023-03-11T01:45:56.491Z,4.20
2023-03-11T01:48:25.436Z,4.20
2023-03-11T01:50:55.102Z,4.20
2023-03-11T01:53:25.474Z,4.20
2023-03-11T01:55:55.873Z,4.20
2023-03-11T01:58:28.379Z,4.20
2023-03-11T02:01:02.807Z,4.20
2023-03-11T02:03:40.960Z,4.20
2023-03-11T02:06:14.324Z,4.10
2023-03-11T02:08:42.515Z,4.10
2023-03-11T02:11:14.696Z,4.00
2023-03-11T02:13:45.450Z,4.00
2023-03-11T02:16:14.796Z,4.00
2023-03-11T02:18:42.885Z,3.90
2023-03-11T02:21:27.822Z,3.90
2023-03-11T02:24:16.670Z,3.90
2023-03-11T02:27:03.526Z,3.80
2023-03-11T02:29:34.798Z,3.80
2023-03-11T02:32:06.402Z,3.80
2023-03-11T02:34:37.827Z,3.80
2023-03-11T02:37:09.408Z,3.80
2023-03-11T02:39:41.467Z,3.80
2023-03-11T02:42:32.500Z,3.80
2023-03-11T02:45:08.216Z,3.80
2023-03-11T02:47:38.912Z,3.90
2023-03-11T02:50:08.049Z,3.90
2023-03-11T02:52:43.722Z,3.90
2023-03-11T02:55:12.215Z,3.90
2023-03-11T02:57:43.105Z,3.90
2023-03-11T03:00:14.957Z,3.90
2023-03-11T03:02:43.732Z,3.90
2023-03-11T03:05:13.844Z,3.90
2023-03-11T03:07:40.884Z,4.00
2023-03-11T03:10:08.690Z,3.90
2023-03-11T03:12:35.761Z,3.90
2023-03-11T03:15:03.534Z,3.90
2023-03-11T03:17:33.532Z,3.90
2023-03-11T03:20:01.618Z,4.00
2023-03-11T03:22:29.566Z,4.00
2023-03-11T03:24:57.499Z,4.00
2023-03-11T03:27:27.510Z,4.00
2023-03-11T03:29:54.567Z,4.00
2023-03-11T03:32:23.598Z,4.00
2023-03-11T03:34:50.561Z,4.00
2023-03-11T03:37:17.705Z,4.00
2023-03-11T03:39:44.778Z,4.10
2023-03-11T03:42:11.910Z,4.00
2023-03-11T03:44:38.983Z,4.00
2023-03-11T03:47:09.176Z,4.00
2023-03-11T03:49:36.206Z,4.00
2023-03-11T03:52:07.005Z,4.00
2023-03-11T03:54:35.052Z,4.00
2023-03-11T03:57:05.416Z,4.00
2023-03-11T03:59:33.454Z,4.00
2023-03-11T04:02:02.772Z,4.00
2023-03-11T04:04:31.336Z,4.00
2023-03-11T04:07:03.600Z,4.00
2023-03-11T04:09:30.528Z,4.00
2023-03-11T04:12:00.499Z,4.00
2023-03-11T04:14:30.620Z,4.00
2023-03-11T04:17:00.782Z,4.00
2023-03-11T04:19:30.971Z,4.00
2023-03-11T04:21:57.981Z,4.00
2023-03-11T04:24:25.016Z,3.90
2023-03-11T04:26:52.005Z,4.00
2023-03-11T04:29:22.087Z,4.00
2023-03-11T04:31:49.250Z,4.00
2023-03-11T04:34:17.371Z,4.00
2023-03-11T04:36:46.402Z,4.00
2023-03-11T04:39:16.467Z,4.00
2023-03-11T04:41:46.592Z,4.00
2023-03-11T04:44:16.680Z,3.90
2023-03-11T04:46:46.757Z,4.00
2023-03-11T04:49:16.911Z,3.90
2023-03-11T04:51:44.007Z,3.90
2023-03-11T04:54:11.089Z,4.00
2023-03-11T04:56:41.232Z,4.00
2023-03-11T04:59:11.283Z,4.00
2023-03-11T05:01:40.355Z,3.90
2023-03-11T05:04:07.539Z,4.00
2023-03-11T05:06:37.566Z,4.00
2023-03-11T05:09:05.886Z,4.00
2023-03-11T05:11:35.033Z,4.10
2023-03-11T05:14:04.180Z,4.10
2023-03-11T05:16:32.493Z,4.10
2023-03-11T05:18:59.650Z,4.20
2023-03-11T05:21:28.223Z,4.20
2023-03-11T05:23:58.249Z,4.20
2023-03-11T05:26:31.277Z,4.20
2023-03-11T05:29:00.431Z,4.20
2023-03-11T05:31:27.588Z,4.20
2023-03-11T05:33:57.734Z,4.20
2023-03-11T05:36:26.771Z,4.20
2023-03-11T05:38:54.754Z,4.10
2023-03-11T05:41:22.813Z,4.10
2023-03-11T05:43:55.767Z,4.00
2023-03-11T05:46:24.096Z,3.90
2023-03-11T05:48:54.188Z,3.90
2023-03-11T05:51:23.211Z,3.80
2023-03-11T05:53:50.363Z,3.70
2023-03-11T05:56:22.483Z,3.70
2023-03-11T05:58:51.910Z,3.60
2023-03-11T06:01:20.979Z,3.60
2023-03-11T06:03:49.073Z,3.50
2023-03-11T06:06:22.228Z,3.40
2023-03-11T06:08:52.395Z,3.40
2023-03-11T06:11:19.449Z,3.40
2023-03-11T06:13:52.509Z,3.40
2023-03-11T06:16:23.995Z,3.40
2023-03-11T06:18:51.547Z,3.30
2023-03-11T06:21:24.363Z,3.30
2023-03-11T06:23:51.530Z,3.30
2023-03-11T06:26:25.032Z,3.30
2023-03-11T06:28:52.719Z,3.30
2023-03-11T06:31:26.153Z,3.40
2023-03-11T06:33:59.441Z,3.40
2023-03-11T06:36:26.962Z,3.40
2023-03-11T06:38:54.882Z,3.50
2023-03-11T06:41:21.849Z,3.60
2023-03-11T06:43:52.037Z,3.70
2023-03-11T06:46:22.879Z,3.80
2023-03-11T06:48:52.759Z,3.90
2023-03-11T06:51:22.438Z,3.90
2023-03-11T06:53:53.789Z,3.90
2023-03-11T06:56:24.761Z,4.00
2023-03-11T06:58:54.138Z,4.20
2023-03-11T07:01:26.091Z,4.40
2023-03-11T07:03:56.438Z,4.70
2023-03-11T07:06:27.064Z,4.80
2023-03-11T07:08:55.537Z,4.80
2023-03-11T07:11:24.742Z,4.80
2023-03-11T07:13:55.330Z,4.80
2023-03-11T07:16:25.602Z,4.80
2023-03-11T07:18:56.890Z,4.80
2023-03-11T07:21:24.032Z,4.80
2023-03-11T07:23:55.508Z,4.80
2023-03-11T07:26:23.153Z,4.80
2023-03-11T07:28:50.189Z,4.80
2023-03-11T07:31:23.958Z,4.80
2023-03-11T07:33:53.983Z,4.80
2023-03-11T07:36:28.216Z,4.90
2023-03-11T07:38:59.627Z,4.90
2023-03-11T07:41:30.840Z,5.00
2023-03-11T07:44:00.126Z,5.10
2023-03-11T07:46:31.267Z,5.30
2023-03-11T07:48:58.521Z,5.60
2023-03-11T07:51:33.441Z,6.10
2023-03-11T07:54:02.365Z,6.80
2023-03-11T07:56:33.288Z,7.20
2023-03-11T07:59:02.483Z,7.50
2023-03-11T08:01:36.199Z,7.80
2023-03-11T08:04:06.895Z,8.20
2023-03-11T08:06:36.113Z,8.50
2023-03-11T08:09:06.606Z,8.60
2023-03-11T08:11:33.722Z,8.60
2023-03-11T08:14:03.313Z,8.70
2023-03-11T08:16:31.083Z,8.80
2023-03-11T08:18:59.248Z,9.00
2023-03-11T08:21:32.089Z,9.20
2023-03-11T08:24:02.380Z,9.40
2023-03-11T08:26:30.388Z,9.70
2023-03-11T08:29:00.370Z,10.30
2023-03-11T08:31:32.422Z,10.90
2023-03-11T08:34:06.358Z,11.10
2023-03-11T08:36:36.594Z,11.20
2023-03-11T08:39:05.708Z,11.30
2023-03-11T08:41:36.301Z,11.20
2023-03-11T08:44:03.392Z,11.30
2023-03-11T08:46:38.813Z,11.20
2023-03-11T08:49:13.133Z,10.80
2023-03-11T08:51:42.688Z,10.40
2023-03-11T08:54:11.147Z,10.20
2023-03-11T08:56:40.230Z,11.00
2023-03-11T08:59:24.511Z,11.80
2023-03-11T09:01:54.482Z,12.10
2023-03-11T09:04:22.587Z,12.50
2023-03-11T09:06:49.651Z,13.30
2023-03-11T09:09:20.518Z,13.60
2023-03-11T09:11:49.756Z,13.60
2023-03-11T09:14:20.088Z,13.40
2023-03-11T09:16:48.106Z,13.50
2023-03-11T09:19:21.172Z,13.90
2023-03-11T09:21:48.536Z,14.80
2023-03-11T09:24:18.597Z,16.30
2023-03-11T09:26:47.652Z,17.80
2023-03-11T09:29:14.825Z,19.10
2023-03-11T09:31:44.109Z,19.90
2023-03-11T09:34:16.118Z,19.30
2023-03-11T09:36:47.034Z,18.30
2023-03-11T09:39:14.374Z,17.20
2023-03-11T09:42:21.646Z,16.20
2023-03-11T09:44:57.069Z,15.30
2023-03-11T09:47:38.022Z,14.40
2023-03-11T09:50:22.436Z,13.60
2023-03-11T09:53:14.020Z,12.90
2023-03-11T09:55:52.279Z,12.30
2023-03-11T09:58:40.609Z,11.70
2023-03-11T10:01:40.524Z,11.30
2023-03-11T10:04:27.088Z,11.00
2023-03-11T10:06:57.562Z,10.60
2023-03-11T10:09:52.212Z,10.30
2023-03-11T10:12:40.968Z,10.30
2023-03-11T10:15:39.725Z,10.50
2023-03-11T10:18:44.367Z,10.60
2023-03-11T10:21:33.104Z,10.90
2023-03-11T10:24:29.429Z,11.30
2023-03-11T10:27:02.570Z,11.50
2023-03-11T10:30:02.740Z,11.40
2023-03-11T10:32:44.659Z,11.40
2023-03-11T10:35:24.717Z,11.20
2023-03-11T10:37:57.178Z,11.00
2023-03-11T10:40:34.796Z,10.80
2023-03-11T10:43:26.943Z,10.90
2023-03-11T10:46:20.124Z,11.30
2023-03-11T10:48:49.252Z,11.60
2023-03-11T10:51:34.859Z,12.20
2023-03-11T10:54:03.678Z,12.70
2023-03-11T10:56:39.500Z,12.80
2023-03-11T10:59:24.550Z,12.70
2023-03-11T11:02:21.396Z,13.20
2023-03-11T11:05:10.588Z,13.40
2023-03-11T11:07:42.473Z,13.30
2023-03-11T11:10:19.214Z,13.00
2023-03-11T11:13:07.877Z,13.00
2023-03-11T11:16:02.966Z,13.40
2023-03-11T11:18:50.271Z,14.20
2023-03-11T11:21:39.602Z,14.80
2023-03-11T11:24:25.868Z,15.00
2023-03-11T11:27:11.743Z,15.00
2023-03-11T11:29:39.035Z,15.00
2023-03-11T11:32:26.098Z,14.80
2023-03-11T11:35:17.068Z,14.50
2023-03-11T11:37:52.225Z,14.00
2023-03-11T11:40:31.540Z,13.80
2023-03-11T11:43:19.139Z,13.70
2023-03-11T11:45:55.656Z,13.50
2023-03-11T11:48:36.476Z,13.50
2023-03-11T11:51:21.435Z,13.70
2023-03-11T11:54:17.664Z,13.80
2023-03-11T11:56:47.771Z,13.90
2023-03-11T11:59:19.024Z,14.00
2023-03-11T12:01:52.332Z,14.10
2023-03-11T12:04:28.487Z,14.30
2023-03-11T12:07:29.734Z,14.30
2023-03-11T12:10:23.347Z,14.30
2023-03-11T12:13:18.117Z,14.10
2023-03-11T12:16:09.324Z,13.70
2023-03-11T12:18:56.634Z,13.30
2023-03-11T12:21:51.705Z,13.40
2023-03-11T12:24:34.704Z,13.80
2023-03-11T12:27:13.536Z,14.10
2023-03-11T12:29:48.199Z,13.90
2023-03-11T12:32:47.676Z,13.70
2023-03-11T12:35:23.631Z,13.80
2023-03-11T12:38:18.708Z,13.90
2023-03-11T12:40:49.536Z,13.80
2023-03-11T12:43:30.255Z,13.80
2023-03-11T12:46:01.279Z,14.10
2023-03-11T12:48:43.199Z,14.50
2023-03-11T12:51:33.721Z,14.90
2023-03-11T12:54:27.956Z,15.30
2023-03-11T12:57:00.530Z,15.50
2023-03-11T13:00:08.026Z,15.60
2023-03-11T13:03:17.081Z,15.70
2023-03-11T13:06:29.762Z,15.80
2023-03-11T13:08:59.090Z,15.60
2023-03-11T13:11:32.180Z,15.20
2023-03-11T13:14:20.941Z,14.80
2023-03-11T13:16:49.699Z,14.40
2023-03-11T13:19:30.247Z,14.20
2023-03-11T13:22:01.902Z,14.30
2023-03-11T13:24:31.991Z,14.20
2023-03-11T13:27:04.933Z,13.90
2023-03-11T13:30:03.123Z,13.50
2023-03-11T13:32:57.971Z,13.10
2023-03-11T13:35:42.292Z,12.90
2023-03-11T13:38:20.640Z,12.90
2023-03-11T13:40:49.678Z,13.20
2023-03-11T13:43:23.793Z,13.40
2023-03-11T13:46:13.521Z,13.40
2023-03-11T13:48:49.500Z,13.20
2023-03-11T13:51:43.486Z,13.00
2023-03-11T13:54:20.451Z,12.80
2023-03-11T13:56:58.103Z,12.60
2023-03-11T13:59:29.710Z,12.50
2023-03-11T14:02:04.783Z,12.40
2023-03-11T14:04:39.398Z,12.60
2023-03-11T14:07:24.732Z,12.70
2023-03-11T14:10:12.487Z,12.70
2023-03-11T14:12:40.526Z,12.60
2023-03-11T14:15:21.596Z,12.40
2023-03-11T14:17:49.010Z,12.20
2023-03-11T14:20:25.595Z,12.00
2023-03-11T14:22:56.126Z,11.90
2023-03-11T14:25:29.263Z,11.90
2023-03-11T14:28:01.049Z,12.10
2023-03-11T14:30:35.145Z,12.20
2023-03-11T14:33:18.554Z,12.30
2023-03-11T14:36:00.086Z,12.30
2023-03-11T14:38:31.452Z,12.20
2023-03-11T14:41:03.988Z,12.30
2023-03-11T14:43:38.695Z,12.40
2023-03-11T14:46:09.869Z,12.50
2023-03-11T14:48:47.126Z,12.60
2023-03-11T14:51:19.791Z,12.50
2023-03-11T14:54:04.379Z,12.50
2023-03-11T14:56:38.575Z,12.40
2023-03-11T14:59:26.798Z,12.20
2023-03-11T15:01:58.519Z,12.30
2023-03-11T15:04:27.494Z,12.30
2023-03-11T15:07:04.169Z,12.20
2023-03-11T15:09:33.486Z,12.20
2023-03-11T15:12:04.830Z,12.20
2023-03-11T15:14:37.458Z,12.00
2023-03-11T15:17:36.986Z,11.90
2023-03-11T15:20:34.719Z,11.80
2023-03-11T15:23:07.808Z,11.70
2023-03-11T15:25:38.801Z,11.70
2023-03-11T15:28:28.783Z,11.60
2023-03-11T15:31:35.372Z,11.50
2023-03-11T15:34:31.129Z,11.40
2023-03-11T15:37:03.302Z,11.40
2023-03-11T15:39:36.697Z,11.30
2023-03-11T15:42:07.711Z,11.30
2023-03-11T15:44:41.923Z,11.30
2023-03-11T15:47:22.016Z,11.30
2023-03-11T15:49:51.361Z,11.30
2023-03-11T15:52:20.123Z,11.30
2023-03-11T15:54:55.457Z,11.20
2023-03-11T15:57:28.280Z,11.10
2023-03-11T16:00:00.373Z,11.00
2023-03-11T16:02:32.410Z,10.80
2023-03-11T16:05:00.532Z,10.70
2023-03-11T16:07:39.621Z,10.70
2023-03-11T16:10:08.521Z,10.60
2023-03-11T16:12:36.861Z,10.50
2023-03-11T16:15:07.571Z,10.40
2023-03-11T16:17:49.255Z,10.30
2023-03-11T16:20:25.263Z,10.20
2023-03-11T16:22:56.655Z,10.10
2023-03-11T16:25:34.754Z,10.00
2023-03-11T16:28:01.849Z,10.10
2023-03-11T16:30:30.901Z,10.00
2023-03-11T16:32:58.033Z,10.00
2023-03-11T16:35:28.149Z,10.00
2023-03-11T16:37:57.358Z,9.90
2023-03-11T16:40:28.378Z,9.70
2023-03-11T16:43:05.973Z,9.60
2023-03-11T16:45:35.285Z,9.50
2023-03-11T16:48:05.734Z,9.40
2023-03-11T16:50:37.536Z,9.30
2023-03-11T16:53:06.920Z,9.20
2023-03-11T16:55:38.019Z,9.10
2023-03-11T16:58:06.016Z,9.10
2023-03-11T17:00:33.150Z,9.00
2023-03-11T17:03:00.135Z,9.00
2023-03-11T17:05:27.185Z,8.90
2023-03-11T17:08:00.231Z,8.80
2023-03-11T17:10:47.623Z,8.70
2023-03-11T17:13:17.774Z,8.50
2023-03-11T17:16:00.541Z,8.40
2023-03-11T17:18:30.623Z,8.30
2023-03-11T17:21:01.510Z,8.20
2023-03-11T17:23:29.523Z,8.20
2023-03-11T17:26:01.573Z,8.10
2023-03-11T17:28:30.736Z,8.10
2023-03-11T17:31:00.907Z,8.10
2023-03-11T17:33:28.207Z,8.00
2023-03-11T17:36:03.576Z,8.00
2023-03-11T17:38:33.859Z,8.00
2023-03-11T17:41:07.391Z,7.90
2023-03-11T17:43:37.537Z,7.80
2023-03-11T17:46:14.988Z,7.70
2023-03-11T17:48:45.929Z,7.70
2023-03-11T17:51:15.657Z,7.60
2023-03-11T17:53:46.870Z,7.60
2023-03-11T17:56:16.256Z,7.50
2023-03-11T17:58:43.912Z,7.50
2023-03-11T18:01:18.536Z,7.40
2023-03-11T18:03:49.529Z,7.30
2023-03-11T18:06:20.027Z,7.30
2023-03-11T18:08:50.811Z,7.30
2023-03-11T18:11:21.140Z,7.20
2023-03-11T18:13:48.413Z,7.20
2023-03-11T18:16:24.145Z,7.10
2023-03-11T18:18:52.688Z,7.10
2023-03-11T18:21:23.533Z,7.10
2023-03-11T18:23:55.815Z,7.00
2023-03-11T18:26:25.775Z,6.90
2023-03-11T18:28:56.327Z,6.90
2023-03-11T18:31:25.240Z,6.90
2023-03-11T18:34:03.903Z,6.80
2023-03-11T18:36:33.687Z,6.80
2023-03-11T18:39:04.873Z,6.80
2023-03-11T18:41:35.853Z,6.70
2023-03-11T18:44:03.622Z,6.70
2023-03-11T18:46:33.805Z,6.70
2023-03-11T18:49:04.004Z,6.70
2023-03-11T18:51:32.256Z,6.70
2023-03-11T18:54:02.748Z,6.60
2023-03-11T18:56:36.557Z,6.70
2023-03-11T18:59:08.653Z,6.70
2023-03-11T19:01:38.963Z,6.60
2023-03-11T19:04:09.731Z,6.60
2023-03-11T19:06:38.802Z,6.60
2023-03-11T19:09:08.064Z,6.60
2023-03-11T19:11:38.225Z,6.60
2023-03-11T19:14:08.383Z,6.60
2023-03-11T19:16:36.401Z,6.50
2023-03-11T19:19:06.873Z,6.50
2023-03-11T19:21:33.955Z,6.40
2023-03-11T19:24:01.353Z,6.40
2023-03-11T19:26:44.158Z,6.40
2023-03-11T19:29:14.388Z,6.40
2023-03-11T19:31:45.403Z,6.40
2023-03-11T19:34:15.555Z,6.40
2023-03-11T19:36:46.758Z,6.30
2023-03-11T19:39:14.047Z,6.30
2023-03-11T19:41:43.134Z,6.30
2023-03-11T19:44:13.171Z,6.20
2023-03-11T19:46:41.199Z,6.20
2023-03-11T19:49:11.365Z,6.20
2023-03-11T19:51:49.556Z,6.20
2023-03-11T19:54:20.365Z,6.20
2023-03-11T19:56:50.501Z,6.20
2023-03-11T19:59:20.545Z,6.20
2023-03-11T20:01:50.665Z,6.20
2023-03-11T20:04:17.769Z,6.10
2023-03-11T20:06:45.919Z,6.10
2023-03-11T20:09:16.260Z,6.10
2023-03-11T20:11:46.973Z,6.10
2023-03-11T20:14:14.398Z,6.10
2023-03-11T20:16:42.026Z,6.10
2023-03-11T20:19:12.225Z,6.10
2023-03-11T20:21:42.062Z,6.10
2023-03-11T20:24:10.975Z,6.00
2023-03-11T20:26:44.457Z,6.00
2023-03-11T20:29:12.477Z,6.00
2023-03-11T20:31:42.534Z,6.00
2023-03-11T20:34:13.590Z,6.00
2023-03-11T20:36:42.897Z,5.90
2023-03-11T20:39:10.750Z,5.90
2023-03-11T20:41:41.264Z,5.90
2023-03-11T20:44:11.780Z,5.90
2023-03-11T20:46:40.079Z,5.80
2023-03-11T20:49:07.540Z,5.80
2023-03-11T20:51:34.820Z,5.80
2023-03-11T20:54:04.211Z,5.80
2023-03-11T20:56:31.445Z,5.70
2023-03-11T20:58:59.580Z,5.70
2023-03-11T21:01:30.613Z,5.70
2023-03-11T21:04:00.774Z,5.70
2023-03-11T21:06:30.762Z,5.70
2023-03-11T21:09:04.956Z,5.70
2023-03-11T21:11:35.413Z,5.70
2023-03-11T21:14:04.107Z,5.70
2023-03-11T21:16:33.405Z,5.70
2023-03-11T21:19:05.674Z,5.80
2023-03-11T21:21:33.236Z,5.70
2023-03-11T21:24:00.759Z,5.80
2023-03-11T21:26:31.152Z,5.70
2023-03-11T21:29:00.796Z,5.80
2023-03-11T21:31:29.645Z,5.80
2023-03-11T21:34:01.542Z,5.80
2023-03-11T21:36:29.281Z,5.80
2023-03-11T21:38:58.388Z,5.80
2023-03-11T21:41:27.616Z,5.80
2023-03-11T21:43:56.236Z,5.80
2023-03-11T21:46:32.126Z,5.80
2023-03-11T21:49:01.727Z,5.80
2023-03-11T21:51:30.000Z,5.80
2023-03-11T21:53:59.287Z,5.90
2023-03-11T21:56:27.820Z,5.90
2023-03-11T21:58:58.292Z,5.90
2023-03-11T22:01:28.590Z,5.90
2023-03-11T22:03:56.827Z,5.90
2023-03-11T22:06:24.157Z,5.90
2023-03-11T22:08:54.418Z,5.90
2023-03-11T22:11:24.629Z,5.90
2023-03-11T22:13:57.303Z,6.00
2023-03-11T22:16:25.389Z,6.00
2023-03-11T22:18:53.939Z,5.90
2023-03-11T22:21:24.704Z,6.00
2023-03-11T22:23:54.796Z,6.00
2023-03-11T22:26:24.997Z,6.00
2023-03-11T22:28:55.099Z,6.00
2023-03-11T22:31:25.202Z,6.00
2023-03-11T22:33:55.476Z,6.00
2023-03-11T22:36:25.835Z,6.00
2023-03-11T22:38:56.974Z,5.90
2023-03-11T22:41:26.018Z,5.90
2023-03-11T22:43:59.107Z,5.80
2023-03-11T22:46:29.297Z,5.80
2023-03-11T22:48:59.652Z,5.80
2023-03-11T22:51:29.734Z,5.80
2023-03-11T22:54:00.036Z,5.70
2023-03-11T22:56:28.560Z,5.70
2023-03-11T22:58:59.394Z,5.70
2023-03-11T23:01:28.389Z,5.70
2023-03-11T23:03:55.381Z,5.70
2023-03-11T23:06:25.686Z,5.70
2023-03-11T23:08:55.706Z,5.60
2023-03-11T23:11:23.472Z,5.60
2023-03-11T23:13:52.599Z,5.60
2023-03-11T23:16:26.142Z,5.60
2023-03-11T23:18:56.420Z,5.60
2023-03-11T23:21:32.011Z,5.60
2023-03-11T23:24:03.071Z,5.60
2023-03-11T23:26:34.158Z,5.60
2023-03-11T23:29:02.935Z,5.60
2023-03-11T23:31:31.701Z,5.70
2023-03-11T23:34:02.164Z,5.70
2023-03-11T23:36:35.229Z,5.70
2023-03-11T23:39:02.169Z,5.70
2023-03-11T23:41:31.291Z,5.70
2023-03-11T23:43:58.419Z,5.70
2023-03-11T23:46:26.540Z,5.70
2023-03-11T23:49:09.367Z,5.70
2023-03-11T23:51:39.404Z,5.70
2023-03-11T23:54:07.820Z,5.70
2023-03-11T23:56:36.830Z,5.70
2023-03-11T23:59:06.783Z,5.70
